Time;durP1;ratioP1;P1;durP2;ratioP2;P2;SDS_P1;SDS_P2;PMS_P1;PMS_P2;Temp;Humidity;BMP_temperature;BMP_pressure;BME280_temperature;BME280_humidity;BME280_pressure;Samples;Min_cycle;Max_cycle;Signal;HPM_P1;HPM_P2
2023/08/24 00:02:01;;;;;;;3.78;1.85;;;17.10;99.90;;;;;;4827990;29;20054;-69
2023/08/24 00:04:28;;;;;;;8.90;2.45;;;17.10;99.90;;;;;;4831293;29;20050;-69
2023/08/24 00:06:55;;;;;;;3.45;2.63;;;17.10;99.90;;;;;;4831187;29;20050;-68
2023/08/24 00:09:22;;;;;;;2.42;2.22;;;17.10;99.90;;;;;;4826735;29;20066;-66
2023/08/24 00:11:50;;;;;;;1.80;1.70;;;17.00;99.90;;;;;;4829202;29;20080;-68
2023/08/24 00:14:17;;;;;;;5.20;2.25;;;17.00;99.90;;;;;;4828892;29;20054;-71
2023/08/24 00:16:44;;;;;;;2.45;2.25;;;16.90;99.90;;;;;;4833735;29;20061;-72
2023/08/24 00:19:11;;;;;;;2.95;2.70;;;16.90;99.90;;;;;;4828463;29;20389;-65
2023/08/24 00:21:38;;;;;;;2.88;2.42;;;16.80;99.90;;;;;;4830696;29;20482;-72
2023/08/24 00:24:05;;;;;;;7.22;2.78;;;16.70;99.90;;;;;;4828130;29;20046;-67
2023/08/24 00:26:32;;;;;;;2.97;2.17;;;16.70;99.90;;;;;;4823688;29;20048;-65
2023/08/24 00:29:00;;;;;;;6.18;2.20;;;16.60;99.90;;;;;;4828679;29;20066;-70
2023/08/24 00:31:27;;;;;;;1.63;1.52;;;16.60;99.90;;;;;;4829951;29;20037;-68
2023/08/24 00:33:54;;;;;;;2.97;2.08;;;16.60;99.90;;;;;;4830454;29;20050;-68
2023/08/24 00:36:24;;;;;;;5.45;2.45;;;16.50;99.90;;;;;;4821117;29;20720;-68
2023/08/24 00:38:53;;;;;;;4.97;2.72;;;16.60;99.90;;;;;;4828517;29;20129;-67
2023/08/24 00:41:21;;;;;;;3.65;2.53;;;16.50;99.90;;;;;;4827858;29;20046;-64
2023/08/24 00:43:50;;;;;;;2.35;2.15;;;16.50;99.90;;;;;;4828163;29;20178;-71
2023/08/24 00:46:18;;;;;;;3.40;2.08;;;16.60;99.90;;;;;;4824203;29;20050;-67
2023/08/24 00:48:47;;;;;;;5.10;2.88;;;16.60;99.90;;;;;;4826031;29;20050;-66
2023/08/24 00:51:14;;;;;;;3.17;2.88;;;16.60;99.90;;;;;;4832570;29;21361;-68
2023/08/24 00:53:41;;;;;;;4.05;2.60;;;16.60;99.90;;;;;;4829770;29;20497;-65
2023/08/24 00:56:08;;;;;;;2.70;2.50;;;16.60;99.90;;;;;;4826776;29;20082;-67
2023/08/24 00:58:37;;;;;;;2.95;2.72;;;16.60;99.90;;;;;;4833043;29;20398;-68
2023/08/24 01:01:04;;;;;;;3.00;2.15;;;16.50;99.90;;;;;;4823996;29;20739;-65
2023/08/24 01:03:32;;;;;;;3.05;2.00;;;16.50;99.90;;;;;;4814675;29;20046;-67
2023/08/24 01:05:59;;;;;;;4.38;3.03;;;16.50;99.90;;;;;;4828057;29;20099;-68
2023/08/24 01:08:26;;;;;;;4.25;3.13;;;16.50;99.90;;;;;;4827553;29;20456;-67
2023/08/24 01:11:08;;;;;;;1.90;1.80;;;16.50;99.90;;;;;;4826856;29;20468;-66
2023/08/24 01:13:43;;;;;;;2.47;2.28;;;16.50;99.90;;;;;;4826527;29;20054;-67
2023/08/24 01:16:20;;;;;;;2.22;1.95;;;16.50;99.90;;;;;;4827284;29;20042;-68
2023/08/24 01:18:49;;;;;;;3.65;1.83;;;16.50;99.90;;;;;;4829911;29;20044;-65
2023/08/24 01:21:17;;;;;;;3.00;2.03;;;16.50;99.90;;;;;;4819044;29;20064;-66
2023/08/24 01:23:56;;;;;;;5.28;3.53;;;16.50;99.90;;;;;;4825284;29;20045;-75
2023/08/24 01:26:24;;;;;;;4.47;3.38;;;16.60;99.90;;;;;;4826003;29;20061;-66
2023/08/24 01:28:52;;;;;;;3.17;2.97;;;16.60;99.90;;;;;;4830444;29;20130;-65
2023/08/24 01:31:19;;;;;;;1.80;1.70;;;16.60;99.90;;;;;;4825346;29;20042;-71
2023/08/24 01:33:47;;;;;;;4.28;2.08;;;16.60;99.90;;;;;;4822269;29;20046;-66
2023/08/24 01:36:19;;;;;;;3.42;2.17;;;16.70;99.90;;;;;;4828247;29;20054;-65
2023/08/24 01:39:06;;;;;;;2.10;1.90;;;16.70;99.90;;;;;;4825653;29;20050;-73
2023/08/24 01:41:42;;;;;;;3.42;1.70;;;16.70;99.90;;;;;;4827093;29;20050;-73
2023/08/24 01:44:15;;;;;;;1.92;1.55;;;16.70;99.90;;;;;;4827977;29;20060;-68
2023/08/24 01:46:43;;;;;;;3.28;2.47;;;16.70;99.90;;;;;;4827701;29;20048;-72
2023/08/24 01:49:13;;;;;;;2.35;1.98;;;16.70;99.90;;;;;;4824708;29;20049;-69
2023/08/24 01:51:42;;;;;;;3.97;2.22;;;16.70;99.90;;;;;;4823486;29;20049;-70
2023/08/24 01:54:09;;;;;;;2.30;1.90;;;16.60;99.90;;;;;;4826234;29;20136;-69
2023/08/24 01:56:36;;;;;;;3.10;2.10;;;16.60;99.90;;;;;;4823202;29;20048;-66
2023/08/24 01:59:03;;;;;;;1.67;1.58;;;16.60;99.90;;;;;;4815558;29;20069;-65
2023/08/24 02:01:30;;;;;;;4.30;2.10;;;16.60;99.90;;;;;;4827673;29;20057;-70
2023/08/24 02:03:59;;;;;;;2.85;2.13;;;16.60;99.90;;;;;;4825639;29;20485;-66
2023/08/24 02:06:27;;;;;;;2.55;2.00;;;16.60;99.90;;;;;;4822502;29;20068;-71
2023/08/24 02:08:54;;;;;;;2.95;2.25;;;16.60;99.90;;;;;;4820089;29;20050;-67
2023/08/24 02:11:21;;;;;;;2.30;1.95;;;16.60;99.90;;;;;;4828566;29;20066;-71
2023/08/24 02:13:48;;;;;;;2.70;1.92;;;16.60;99.90;;;;;;4813380;29;20061;-66
2023/08/24 02:16:15;;;;;;;2.58;2.38;;;16.50;99.90;;;;;;4820940;29;20058;-68
2023/08/24 02:18:42;;;;;;;2.03;1.77;;;16.50;99.90;;;;;;4828512;29;20045;-71
2023/08/24 02:21:11;;;;;;;2.53;1.92;;;16.50;99.90;;;;;;4827017;29;20065;-67
2023/08/24 02:23:40;;;;;;;4.03;2.50;;;16.50;99.90;;;;;;4824831;29;20048;-69
2023/08/24 02:26:07;;;;;;;4.45;2.30;;;16.50;99.90;;;;;;4828368;29;20042;-71
2023/08/24 02:28:37;;;;;;;2.85;2.20;;;16.40;99.90;;;;;;4823633;29;20074;-67
2023/08/24 02:31:04;;;;;;;2.95;2.65;;;16.40;99.90;;;;;;4824104;29;20118;-69
2023/08/24 02:33:32;;;;;;;2.55;2.13;;;16.40;99.90;;;;;;4823436;29;20054;-68
2023/08/24 02:36:00;;;;;;;4.40;3.15;;;16.40;99.90;;;;;;4820782;29;20085;-66
2023/08/24 02:38:28;;;;;;;4.22;2.67;;;16.40;99.90;;;;;;4823158;29;20047;-65
2023/08/24 02:41:02;;;;;;;3.25;1.80;;;16.40;99.90;;;;;;4823758;29;20046;-66
2023/08/24 02:43:30;;;;;;;4.15;2.40;;;16.40;99.90;;;;;;4826014;29;20131;-72
2023/08/24 02:46:05;;;;;;;2.63;2.03;;;16.40;99.90;;;;;;4824982;29;20043;-68
2023/08/24 02:48:32;;;;;;;2.60;2.40;;;16.30;99.90;;;;;;4824701;29;20074;-68
2023/08/24 02:51:03;;;;;;;3.58;3.10;;;16.30;99.90;;;;;;4826471;29;20103;-69
2023/08/24 02:53:31;;;;;;;4.18;2.38;;;16.30;99.90;;;;;;4824959;29;20134;-68
2023/08/24 02:55:58;;;;;;;2.70;2.45;;;16.30;99.90;;;;;;4826655;29;20501;-69
2023/08/24 02:58:26;;;;;;;4.28;3.03;;;16.30;99.90;;;;;;4821150;29;20578;-71
2023/08/24 03:00:54;;;;;;;4.20;3.80;;;16.30;99.90;;;;;;4826124;29;20034;-66
2023/08/24 03:03:23;;;;;;;2.55;2.10;;;16.30;99.90;;;;;;4818253;29;20058;-65
2023/08/24 03:05:58;;;;;;;2.42;2.22;;;16.30;99.90;;;;;;4824023;29;20210;-64
2023/08/24 03:08:29;;;;;;;2.65;2.40;;;16.20;99.90;;;;;;4823141;29;20046;-65
2023/08/24 03:10:57;;;;;;;3.53;2.35;;;16.20;99.90;;;;;;4823092;29;20173;-66
2023/08/24 03:13:24;;;;;;;2.83;2.58;;;16.20;99.90;;;;;;4824131;29;20050;-67
2023/08/24 03:15:53;;;;;;;4.05;2.80;;;16.20;99.90;;;;;;4820617;29;20058;-68
2023/08/24 03:18:23;;;;;;;3.17;2.88;;;16.10;99.90;;;;;;4803957;29;20615;-72
2023/08/24 03:20:50;;;;;;;4.13;2.60;;;16.10;99.90;;;;;;4826687;29;20049;-71
2023/08/24 03:23:17;;;;;;;3.03;2.83;;;16.20;99.90;;;;;;4814383;29;20062;-71
2023/08/24 03:25:44;;;;;;;3.60;3.30;;;16.10;99.90;;;;;;4826172;29;20326;-74
2023/08/24 03:28:13;;;;;;;4.43;2.63;;;16.10;99.90;;;;;;4817983;29;20074;-71
2023/08/24 03:30:48;;;;;;;3.63;3.33;;;16.20;99.90;;;;;;4830845;29;20050;-66
2023/08/24 03:33:16;;;;;;;4.05;3.08;;;16.10;99.90;;;;;;4830229;29;20093;-67
2023/08/24 03:35:43;;;;;;;2.70;2.50;;;16.10;99.90;;;;;;4820419;29;20065;-68
2023/08/24 03:38:10;;;;;;;3.90;3.50;;;16.10;99.90;;;;;;4825473;29;20064;-64
2023/08/24 03:40:37;;;;;;;7.35;3.42;;;16.10;99.90;;;;;;4831527;29;20069;-67
2023/08/24 03:43:05;;;;;;;6.22;4.57;;;16.10;99.90;;;;;;4829135;29;20565;-69
2023/08/24 03:45:32;;;;;;;6.35;3.75;;;16.10;99.90;;;;;;4830928;29;20397;-71
2023/08/24 03:47:59;;;;;;;5.00;3.08;;;16.10;99.90;;;;;;4820479;29;20054;-68
2023/08/24 03:50:26;;;;;;;5.78;4.03;;;16.10;99.90;;;;;;4826170;29;20806;-65
2023/08/24 03:52:54;;;;;;;4.55;3.25;;;16.10;99.90;;;;;;4826384;29;20066;-66
2023/08/24 03:55:22;;;;;;;4.18;3.22;;;16.10;99.90;;;;;;4829061;29;20054;-67
2023/08/24 03:57:50;;;;;;;4.05;3.60;;;16.10;99.90;;;;;;4826411;29;20056;-67
2023/08/24 04:00:17;;;;;;;6.35;3.45;;;16.10;99.90;;;;;;4827549;29;20073;-65
2023/08/24 04:02:45;;;;;;;4.45;3.83;;;16.10;99.90;;;;;;4819482;29;20058;-68
2023/08/24 04:05:20;;;;;;;4.90;3.80;;;16.10;99.90;;;;;;4815504;29;20056;-67
2023/08/24 04:07:47;;;;;;;4.90;3.88;;;16.10;99.90;;;;;;4826558;29;20065;-68
2023/08/24 04:10:15;;;;;;;5.45;3.75;;;16.10;99.90;;;;;;4831081;29;20061;-67
2023/08/24 04:12:42;;;;;;;3.88;3.53;;;16.10;99.90;;;;;;4830054;29;20066;-71
2023/08/24 04:15:10;;;;;;;7.70;4.28;;;16.10;99.90;;;;;;4827595;29;20054;-68
2023/08/24 04:17:38;;;;;;;4.72;3.38;;;16.00;99.90;;;;;;4830861;29;20059;-74
2023/08/24 04:20:08;;;;;;;3.58;2.97;;;16.00;99.90;;;;;;4829062;29;20046;-67
2023/08/24 04:22:35;;;;;;;4.50;3.72;;;16.00;99.90;;;;;;4830934;29;20053;-72
2023/08/24 04:25:02;;;;;;;4.20;3.72;;;16.00;99.90;;;;;;4826912;29;20058;-70
2023/08/24 04:27:29;;;;;;;4.05;3.50;;;16.00;99.90;;;;;;4826883;29;20049;-67
2023/08/24 04:29:56;;;;;;;5.15;3.92;;;16.00;99.90;;;;;;4828860;29;20046;-65
2023/08/24 04:32:23;;;;;;;3.88;3.47;;;16.00;99.90;;;;;;4827873;29;20046;-69
2023/08/24 04:34:50;;;;;;;3.30;3.00;;;16.00;99.90;;;;;;4830308;29;20056;-65
2023/08/24 04:37:17;;;;;;;5.35;4.25;;;16.00;99.90;;;;;;4826016;29;20049;-70
2023/08/24 04:39:44;;;;;;;5.07;4.50;;;16.00;99.90;;;;;;4829189;29;20102;-66
2023/08/24 04:42:11;;;;;;;4.18;3.72;;;16.00;99.90;;;;;;4822473;29;20054;-68
2023/08/24 04:44:38;;;;;;;6.75;4.00;;;16.00;99.90;;;;;;4825234;29;20511;-70
2023/08/24 04:47:06;;;;;;;7.60;3.92;;;16.00;99.90;;;;;;4828803;29;20077;-67
2023/08/24 04:49:33;;;;;;;6.70;3.60;;;16.00;99.90;;;;;;4825184;29;20132;-73
2023/08/24 04:51:59;;;;;;;4.18;3.22;;;16.10;99.90;;;;;;4826721;29;20868;-67
2023/08/24 04:54:26;;;;;;;5.20;3.75;;;16.10;99.90;;;;;;4826574;29;20129;-70
2023/08/24 04:56:53;;;;;;;5.53;3.72;;;16.10;99.90;;;;;;4826064;29;20045;-67
2023/08/24 04:59:20;;;;;;;6.35;3.95;;;16.10;99.90;;;;;;4827101;29;20143;-68
2023/08/24 05:01:47;;;;;;;6.65;4.43;;;16.10;99.90;;;;;;4828275;29;20050;-65
2023/08/24 05:04:14;;;;;;;11.88;5.88;;;16.10;99.90;;;;;;4828825;29;20169;-67
2023/08/24 05:06:41;;;;;;;4.65;3.90;;;16.10;99.90;;;;;;4826500;29;20106;-69
2023/08/24 05:09:08;;;;;;;4.47;3.67;;;16.10;99.90;;;;;;4825891;29;20130;-69
2023/08/24 05:11:35;;;;;;;5.35;4.93;;;16.10;99.90;;;;;;4828621;29;20501;-68
2023/08/24 05:14:02;;;;;;;5.68;4.22;;;16.10;99.90;;;;;;4825378;29;20151;-69
2023/08/24 05:16:28;;;;;;;4.70;4.30;;;16.10;99.90;;;;;;4832144;29;20129;-65
2023/08/24 05:18:56;;;;;;;4.90;4.50;;;16.10;99.90;;;;;;4825956;29;20722;-65
2023/08/24 05:21:23;;;;;;;4.65;4.22;;;16.10;99.90;;;;;;4823492;29;20077;-68
2023/08/24 05:23:50;;;;;;;4.05;3.60;;;16.10;99.90;;;;;;4823107;29;20124;-65
2023/08/24 05:26:22;;;;;;;4.10;3.70;;;16.10;99.90;;;;;;4829543;29;20073;-65
2023/08/24 05:28:50;;;;;;;6.75;4.72;;;16.10;99.90;;;;;;4824289;29;20107;-67
2023/08/24 05:31:17;;;;;;;4.40;4.00;;;16.10;99.90;;;;;;4823700;29;20118;-73
2023/08/24 05:33:47;;;;;;;17.52;4.50;;;16.10;99.90;;;;;;4822906;29;20489;-66
2023/08/24 05:36:14;;;;;;;3.92;3.58;;;16.10;99.90;;;;;;4829930;29;20860;-68
2023/08/24 05:38:46;;;;;;;4.82;3.97;;;16.20;99.90;;;;;;4821696;29;20150;-70
2023/08/24 05:41:29;;;;;;;6.05;3.97;;;16.20;99.90;;;;;;4827350;29;20509;-71
2023/08/24 05:43:57;;;;;;;4.20;3.80;;;16.20;99.90;;;;;;4825530;29;20885;-72
2023/08/24 05:46:24;;;;;;;7.65;4.70;;;16.20;99.90;;;;;;4825845;29;20062;-70
2023/08/24 05:48:51;;;;;;;3.90;3.58;;;16.20;99.90;;;;;;4824027;29;20053;-70
2023/08/24 05:51:18;;;;;;;4.50;3.97;;;16.30;99.90;;;;;;4824712;29;20085;-69
2023/08/24 05:53:45;;;;;;;9.55;3.95;;;16.30;99.90;;;;;;4823891;29;20069;-68
2023/08/24 05:56:12;;;;;;;3.83;3.45;;;16.30;99.90;;;;;;4829581;29;20628;-71
2023/08/24 05:58:39;;;;;;;4.60;4.20;;;16.30;99.90;;;;;;4823229;29;20038;-74
2023/08/24 06:01:05;;;;;;;4.50;3.95;;;16.30;99.90;;;;;;4822330;29;20105;-67
2023/08/24 06:03:33;;;;;;;4.32;3.92;;;16.30;99.90;;;;;;4822771;29;20062;-69
2023/08/24 06:06:04;;;;;;;6.65;3.50;;;16.30;99.90;;;;;;4823369;29;20785;-65
2023/08/24 06:08:31;;;;;;;6.18;4.07;;;16.30;99.90;;;;;;4828073;29;20038;-66
2023/08/24 06:10:58;;;;;;;3.78;3.42;;;16.40;99.90;;;;;;4827023;29;20041;-72
2023/08/24 06:13:25;;;;;;;4.57;3.65;;;16.40;99.90;;;;;;4825140;29;20058;-71
2023/08/24 06:15:54;;;;;;;6.30;4.10;;;16.30;99.90;;;;;;4822824;29;20047;-68
2023/08/24 06:18:21;;;;;;;6.13;3.60;;;16.30;99.90;;;;;;4823934;29;20042;-71
2023/08/24 06:20:49;;;;;;;3.80;3.50;;;16.20;99.90;;;;;;4821848;29;20057;-68
2023/08/24 06:23:17;;;;;;;4.93;4.43;;;16.30;99.90;;;;;;4825705;29;20491;-70
2023/08/24 06:25:45;;;;;;;4.22;3.60;;;16.30;99.90;;;;;;4829810;29;20046;-68
2023/08/24 06:28:13;;;;;;;7.63;4.40;;;16.30;99.90;;;;;;4823754;29;20431;-69
2023/08/24 06:30:43;;;;;;;7.72;3.70;;;16.20;99.90;;;;;;4825571;29;20153;-68
2023/08/24 06:33:10;;;;;;;6.93;4.93;;;16.20;99.90;;;;;;4826193;29;20129;-66
2023/08/24 06:35:38;;;;;;;4.78;3.30;;;16.30;99.90;;;;;;4823167;29;20057;-67
2023/08/24 06:38:05;;;;;;;8.57;3.75;;;16.30;99.90;;;;;;4823825;29;20042;-70
2023/08/24 06:40:32;;;;;;;3.92;3.53;;;16.30;99.90;;;;;;4826869;29;20681;-66
2023/08/24 06:42:59;;;;;;;3.70;3.40;;;16.30;99.90;;;;;;4825794;29;20125;-66
2023/08/24 06:45:26;;;;;;;6.50;2.90;;;16.40;99.90;;;;;;4827636;29;20849;-72
2023/08/24 06:47:53;;;;;;;3.80;2.90;;;16.40;99.90;;;;;;4824691;29;20049;-67
2023/08/24 06:50:20;;;;;;;3.03;2.83;;;16.40;99.90;;;;;;4827067;29;20046;-66
2023/08/24 06:52:47;;;;;;;2.97;2.78;;;16.50;99.90;;;;;;4826494;29;20074;-72
2023/08/24 06:55:14;;;;;;;3.53;3.22;;;16.50;99.90;;;;;;4825957;29;20044;-68
2023/08/24 06:57:41;;;;;;;6.28;3.05;;;16.50;99.90;;;;;;4821555;29;20413;-66
2023/08/24 07:00:09;;;;;;;7.38;3.90;;;16.60;99.90;;;;;;4823137;29;20051;-69
2023/08/24 07:02:36;;;;;;;6.13;3.67;;;16.60;99.90;;;;;;4824183;29;20596;-70
2023/08/24 07:05:08;;;;;;;6.53;2.70;;;16.60;99.90;;;;;;4832063;29;20472;-67
2023/08/24 07:07:35;;;;;;;3.30;2.97;;;16.60;99.90;;;;;;4829455;29;20489;-68
2023/08/24 07:10:03;;;;;;;2.83;2.63;;;16.70;99.90;;;;;;4823436;29;20046;-66
2023/08/24 07:12:30;;;;;;;5.57;2.95;;;16.70;99.90;;;;;;4828618;29;20062;-67
2023/08/24 07:14:57;;;;;;;4.90;2.92;;;16.80;99.90;;;;;;4832882;29;20042;-67
2023/08/24 07:17:24;;;;;;;3.22;2.92;;;16.80;99.90;;;;;;4829531;29;20046;-70
2023/08/24 07:19:51;;;;;;;4.68;3.40;;;16.80;99.90;;;;;;4823016;29;20056;-65
2023/08/24 07:22:19;;;;;;;2.85;2.28;;;16.80;99.90;;;;;;4830039;29;20130;-71
2023/08/24 07:24:46;;;;;;;2.75;2.55;;;16.80;99.90;;;;;;4830107;29;20038;-70
2023/08/24 07:27:13;;;;;;;2.58;2.30;;;16.90;99.90;;;;;;4831849;29;20062;-69
2023/08/24 07:29:40;;;;;;;9.32;3.65;;;16.90;99.90;;;;;;4830021;29;20163;-70
2023/08/24 07:32:07;;;;;;;5.00;2.67;;;16.90;99.90;;;;;;4832445;29;20062;-70
2023/08/24 07:34:34;;;;;;;8.30;3.15;;;16.90;99.90;;;;;;4822550;29;20069;-69
2023/08/24 07:37:01;;;;;;;5.45;3.17;;;16.90;99.90;;;;;;4828385;29;20059;-69
2023/08/24 07:39:28;;;;;;;6.47;3.05;;;16.90;99.90;;;;;;4830421;29;20128;-67
2023/08/24 07:41:55;;;;;;;3.70;2.65;;;16.90;99.90;;;;;;4828542;29;20359;-73
2023/08/24 07:44:22;;;;;;;3.35;2.65;;;16.90;99.90;;;;;;4826651;29;20049;-67
2023/08/24 07:46:49;;;;;;;2.75;2.55;;;16.90;99.90;;;;;;4828814;29;20054;-67
2023/08/24 07:49:16;;;;;;;5.07;2.45;;;17.00;99.90;;;;;;4828544;29;20133;-71
2023/08/24 07:51:43;;;;;;;2.65;2.35;;;17.00;99.90;;;;;;4829808;29;20160;-69
2023/08/24 07:54:10;;;;;;;5.43;2.70;;;17.00;99.90;;;;;;4828012;29;20054;-67
2023/08/24 07:56:37;;;;;;;4.07;2.08;;;17.00;99.90;;;;;;4830727;29;20046;-65
2023/08/24 07:59:04;;;;;;;3.17;2.13;;;17.10;99.90;;;;;;4826273;29;20118;-72
2023/08/24 08:01:31;;;;;;;4.97;2.50;;;17.00;99.90;;;;;;4826848;29;20145;-66
2023/08/24 08:04:00;;;;;;;9.57;3.10;;;17.10;99.90;;;;;;4825371;29;20057;-71
2023/08/24 08:06:27;;;;;;;4.20;3.08;;;17.20;99.90;;;;;;4829051;29;20057;-69
2023/08/24 08:08:54;;;;;;;3.97;2.42;;;17.20;99.90;;;;;;4828415;29;20132;-69
2023/08/24 08:11:21;;;;;;;2.58;2.08;;;17.30;99.90;;;;;;4829100;29;20056;-66
2023/08/24 08:13:48;;;;;;;3.92;2.40;;;17.40;99.90;;;;;;4822939;29;20068;-69
2023/08/24 08:16:15;;;;;;;2.22;2.00;;;17.40;99.90;;;;;;4826617;29;20053;-70
2023/08/24 08:18:42;;;;;;;2.45;2.25;;;17.40;99.90;;;;;;4826579;29;20077;-75
2023/08/24 08:21:19;;;;;;;2.75;1.70;;;17.50;99.90;;;;;;4828671;29;20050;-71
2023/08/24 08:23:49;;;;;;;4.82;2.90;;;17.50;99.90;;;;;;4828164;29;20050;-74
2023/08/24 08:26:16;;;;;;;2.42;2.22;;;17.50;99.90;;;;;;4826708;29;20130;-72
2023/08/24 08:28:44;;;;;;;3.20;1.77;;;17.50;99.90;;;;;;4826268;29;20137;-76
2023/08/24 08:31:11;;;;;;;2.88;2.60;;;17.60;99.90;;;;;;4828525;29;20081;-64
2023/08/24 08:33:38;;;;;;;3.28;2.97;;;17.60;99.90;;;;;;4826149;29;20129;-71
2023/08/24 08:36:05;;;;;;;7.68;3.42;;;17.60;99.90;;;;;;4828974;29;20042;-69
2023/08/24 08:38:32;;;;;;;5.90;3.88;;;17.70;99.90;;;;;;4831221;29;20062;-70
2023/08/24 08:41:04;;;;;;;3.03;2.83;;;17.70;99.90;;;;;;4823457;29;20038;-65
2023/08/24 08:43:31;;;;;;;2.83;2.42;;;17.70;99.90;;;;;;4826568;29;20052;-66
2023/08/24 08:45:59;;;;;;;3.75;2.92;;;17.80;99.90;;;;;;4828860;29;21285;-70
2023/08/24 08:48:30;;;;;;;7.05;3.67;;;17.80;99.90;;;;;;4826387;29;20178;-68
2023/08/24 08:50:57;;;;;;;4.22;2.83;;;17.80;99.90;;;;;;4827653;29;20046;-66
2023/08/24 08:53:24;;;;;;;3.47;2.55;;;17.80;99.90;;;;;;4824615;29;20042;-67
2023/08/24 08:55:53;;;;;;;2.83;2.63;;;17.90;99.90;;;;;;4825533;29;20050;-71
2023/08/24 08:58:21;;;;;;;3.38;3.08;;;18.00;99.90;;;;;;4824389;29;20049;-71
2023/08/24 09:00:49;;;;;;;3.30;2.63;;;18.00;99.90;;;;;;4828372;29;20046;-64
2023/08/24 09:03:18;;;;;;;3.88;2.92;;;17.90;99.90;;;;;;4826611;29;20046;-70
2023/08/24 09:05:47;;;;;;;5.07;2.78;;;17.80;99.90;;;;;;4823557;29;20420;-70
2023/08/24 09:08:18;;;;;;;2.72;2.50;;;17.80;99.90;;;;;;4830199;29;20368;-72
2023/08/24 09:10:45;;;;;;;5.15;2.45;;;17.80;99.90;;;;;;4828076;29;20500;-68
2023/08/24 09:13:12;;;;;;;3.35;3.05;;;17.80;99.90;;;;;;4828225;29;20046;-65
2023/08/24 09:15:39;;;;;;;2.22;2.03;;;17.90;99.90;;;;;;4823690;29;20479;-66
2023/08/24 09:18:07;;;;;;;2.05;1.80;;;18.00;99.90;;;;;;4811012;29;20050;-64
2023/08/24 09:20:35;;;;;;;2.63;1.95;;;18.00;99.90;;;;;;4826770;29;20541;-65
2023/08/24 09:23:02;;;;;;;2.67;2.00;;;18.00;99.90;;;;;;4822857;29;20041;-69
2023/08/24 09:25:29;;;;;;;4.50;2.10;;;18.10;99.90;;;;;;4831508;29;20050;-66
2023/08/24 09:28:08;;;;;;;2.20;2.00;;;18.10;99.90;;;;;;4828338;29;20045;-64
2023/08/24 09:30:35;;;;;;;2.63;2.22;;;18.20;99.90;;;;;;4821207;29;20099;-68
2023/08/24 09:33:13;;;;;;;2.22;2.03;;;18.20;99.90;;;;;;4827875;29;20805;-64
2023/08/24 09:35:40;;;;;;;3.30;1.83;;;18.10;99.90;;;;;;4829124;29;20146;-68
2023/08/24 09:38:22;;;;;;;2.33;1.85;;;18.10;99.90;;;;;;4823918;29;20042;-64
2023/08/24 09:40:55;;;;;;;3.45;1.50;;;18.20;99.90;;;;;;4830891;29;20091;-69
2023/08/24 09:43:23;;;;;;;3.58;1.80;;;18.30;99.90;;;;;;4829289;29;20529;-65
2023/08/24 09:45:54;;;;;;;3.20;1.60;;;18.30;99.90;;;;;;4823831;29;20050;-69
2023/08/24 09:48:22;;;;;;;4.00;2.88;;;18.30;99.90;;;;;;4823360;29;20133;-66
2023/08/24 09:50:52;;;;;;;2.97;2.17;;;18.40;99.90;;;;;;4826752;29;20945;-67
2023/08/24 09:53:22;;;;;;;2.60;2.00;;;18.50;99.90;;;;;;4830249;29;20641;-66
2023/08/24 09:56:01;;;;;;;4.20;1.63;;;18.50;99.90;;;;;;4830791;29;20056;-71
2023/08/24 09:58:29;;;;;;;1.93;1.70;;;18.50;99.90;;;;;;4832215;29;20121;-65
2023/08/24 10:00:56;;;;;;;4.30;1.60;;;18.50;99.90;;;;;;4823779;29;20054;-67
2023/08/24 10:03:27;;;;;;;1.38;1.10;;;18.60;99.90;;;;;;4824705;29;20057;-64
2023/08/24 10:06:00;;;;;;;5.50;2.00;;;18.70;99.90;;;;;;4827945;29;20061;-68
2023/08/24 10:08:38;;;;;;;2.58;1.45;;;18.70;99.90;;;;;;4821123;29;20064;-64
2023/08/24 10:11:07;;;;;;;2.17;1.73;;;18.70;99.90;;;;;;4829836;29;20058;-69
2023/08/24 10:14:02;;;;;;;2.85;1.85;;;18.80;99.90;;;;;;4828264;29;20042;-65
2023/08/24 10:16:30;;;;;;;1.70;1.30;;;18.80;99.90;;;;;;4831519;29;20050;-65
2023/08/24 10:18:58;;;;;;;1.58;1.45;;;18.80;99.90;;;;;;4825127;29;20042;-71
2023/08/24 10:21:28;;;;;;;1.98;1.70;;;18.80;99.90;;;;;;4828176;29;20106;-66
2023/08/24 10:23:58;;;;;;;3.58;1.73;;;18.80;99.90;;;;;;4823539;29;20629;-64
2023/08/24 10:26:26;;;;;;;1.98;1.33;;;18.80;99.90;;;;;;4823526;29;20674;-64
2023/08/24 10:28:54;;;;;;;2.13;1.40;;;18.70;99.90;;;;;;4823566;29;20046;-72
2023/08/24 10:31:21;;;;;;;1.00;0.90;;;18.70;99.90;;;;;;4827279;29;20079;-67
2023/08/24 10:33:49;;;;;;;1.67;1.02;;;18.70;99.90;;;;;;4827072;29;20065;-65
2023/08/24 10:36:18;;;;;;;4.05;1.27;;;18.70;99.90;;;;;;4824569;29;20054;-66
2023/08/24 10:38:45;;;;;;;1.90;1.70;;;18.80;99.90;;;;;;4831591;29;20066;-67
2023/08/24 10:41:13;;;;;;;2.17;1.60;;;19.00;99.90;;;;;;4830039;29;20074;-64
2023/08/24 10:43:49;;;;;;;15.02;1.60;;;19.00;99.90;;;;;;4833160;29;20050;-68
2023/08/24 10:46:16;;;;;;;2.08;1.25;;;19.10;99.90;;;;;;4836742;29;20039;-75
2023/08/24 10:48:44;;;;;;;3.05;1.80;;;19.10;99.90;;;;;;4832131;29;20046;-69
2023/08/24 10:51:18;;;;;;;3.13;1.45;;;19.10;99.90;;;;;;4830871;29;20388;-65
2023/08/24 10:53:59;;;;;;;3.30;1.60;;;18.90;99.90;;;;;;4835300;29;20062;-67
2023/08/24 10:56:34;;;;;;;3.00;1.90;;;19.10;99.90;;;;;;4831763;29;20045;-66
2023/08/24 10:59:17;;;;;;;2.95;1.73;;;19.20;99.90;;;;;;4831284;29;20587;-65
2023/08/24 11:01:53;;;;;;;3.25;1.90;;;19.30;99.90;;;;;;4829901;29;20060;-71
2023/08/24 11:04:20;;;;;;;2.67;2.45;;;19.20;99.90;;;;;;4833091;29;20051;-68
2023/08/24 11:06:55;;;;;;;4.50;2.03;;;19.40;99.90;;;;;;4829594;29;20073;-68
2023/08/24 11:09:23;;;;;;;3.40;2.15;;;19.40;99.90;;;;;;4828045;29;20430;-66
2023/08/24 11:12:03;;;;;;;4.55;1.77;;;19.30;99.90;;;;;;4830124;29;20057;-72
2023/08/24 11:14:30;;;;;;;2.22;1.85;;;19.20;99.90;;;;;;4833555;29;20049;-66
2023/08/24 11:17:00;;;;;;;2.95;1.65;;;19.30;99.90;;;;;;4833137;29;20038;-68
2023/08/24 11:19:27;;;;;;;1.92;1.70;;;19.40;99.90;;;;;;4828276;29;20132;-69
2023/08/24 11:21:54;;;;;;;1.75;1.65;;;19.40;99.90;;;;;;4831467;29;20472;-67
2023/08/24 11:24:22;;;;;;;4.63;2.33;;;19.60;99.90;;;;;;4827428;29;20529;-68
2023/08/24 11:26:49;;;;;;;4.15;1.83;;;19.70;99.90;;;;;;4826525;29;20041;-67
2023/08/24 11:29:18;;;;;;;1.58;1.48;;;19.80;99.90;;;;;;4835154;29;20061;-68
2023/08/24 11:31:45;;;;;;;6.68;2.00;;;19.90;99.90;;;;;;4828823;29;20073;-67
2023/08/24 11:34:15;;;;;;;3.08;1.92;;;19.90;99.90;;;;;;4829927;29;20050;-70
2023/08/24 11:36:43;;;;;;;2.40;1.30;;;20.10;99.90;;;;;;4830616;29;20732;-70
2023/08/24 11:39:22;;;;;;;4.75;1.50;;;20.10;99.90;;;;;;4834339;29;20061;-66
2023/08/24 11:42:05;;;;;;;2.60;1.50;;;20.10;99.90;;;;;;4832305;29;20057;-66
2023/08/24 11:44:50;;;;;;;1.60;1.50;;;20.10;99.90;;;;;;4831359;29;20606;-73
2023/08/24 11:47:19;;;;;;;3.60;1.70;;;20.10;99.90;;;;;;4829958;29;20043;-70
2023/08/24 11:49:46;;;;;;;4.38;1.90;;;20.10;99.90;;;;;;4823698;29;20077;-66
2023/08/24 11:52:15;;;;;;;1.80;1.65;;;20.10;99.90;;;;;;4830846;29;20053;-70
2023/08/24 11:54:44;;;;;;;3.85;1.45;;;20.20;99.90;;;;;;4826502;29;20050;-65
2023/08/24 11:57:11;;;;;;;4.70;1.70;;;20.20;99.90;;;;;;4828159;29;20066;-67
2023/08/24 11:59:39;;;;;;;1.73;1.63;;;20.10;99.90;;;;;;4826654;29;20110;-64
2023/08/24 12:02:06;;;;;;;4.72;1.63;;;20.10;99.90;;;;;;4828851;29;20058;-67
2023/08/24 12:04:42;;;;;;;2.38;1.92;;;20.10;99.90;;;;;;4830284;29;20137;-63
2023/08/24 12:07:14;;;;;;;3.38;2.05;;;20.00;99.90;;;;;;4823675;29;20098;-70
2023/08/24 12:09:42;;;;;;;4.43;1.75;;;19.90;99.90;;;;;;4831699;29;20453;-70
2023/08/24 12:12:16;;;;;;;5.97;2.13;;;20.00;99.90;;;;;;4828077;29;20054;-64
2023/08/24 12:14:44;;;;;;;1.50;1.40;;;20.00;99.90;;;;;;4830996;29;20141;-71
2023/08/24 12:17:12;;;;;;;2.70;2.30;;;20.00;99.90;;;;;;4828819;29;20050;-65
2023/08/24 12:20:06;;;;;;;2.55;1.77;;;20.00;99.90;;;;;;4828737;29;20434;-68
2023/08/24 12:22:33;;;;;;;3.75;1.92;;;20.10;99.90;;;;;;4827030;29;20108;-67
2023/08/24 12:25:00;;;;;;;2.83;1.63;;;20.10;99.90;;;;;;4830966;29;20057;-65
2023/08/24 12:27:27;;;;;;;2.50;1.90;;;20.10;99.90;;;;;;4822603;29;20095;-65
2023/08/24 12:29:59;;;;;;;2.13;1.90;;;20.10;99.90;;;;;;4827419;29;20052;-67
2023/08/24 12:32:45;;;;;;;2.58;1.85;;;20.30;99.90;;;;;;4824916;29;20046;-71
2023/08/24 12:35:15;;;;;;;4.63;2.20;;;20.40;99.90;;;;;;4830566;29;20045;-64
2023/08/24 12:37:42;;;;;;;2.45;2.25;;;20.50;99.90;;;;;;4828968;29;20056;-74
2023/08/24 12:40:09;;;;;;;4.18;1.85;;;20.50;99.90;;;;;;4824695;29;20150;-67
2023/08/24 12:42:36;;;;;;;2.17;1.88;;;20.50;99.90;;;;;;4826620;29;20447;-69
2023/08/24 12:45:04;;;;;;;3.35;2.53;;;20.60;99.90;;;;;;4827894;29;20123;-73
2023/08/24 12:47:34;;;;;;;2.08;1.88;;;20.60;99.90;;;;;;4825140;29;20057;-68
2023/08/24 12:50:01;;;;;;;2.78;1.73;;;20.70;99.90;;;;;;4829809;29;20380;-68
2023/08/24 12:52:28;;;;;;;4.93;3.75;;;20.70;99.90;;;;;;4828727;29;20038;-70
2023/08/24 12:54:55;;;;;;;4.75;2.30;;;20.70;99.90;;;;;;4826034;29;20061;-66